sensor_id;sensor_type;location;lat;lon;timestamp;P1;durP1;ratioP1;P2;durP2;ratioP2
84729;SDS011;74950;56.832;41.398;2024-02-26T00:00:00;3.38;;;1.65;;
84729;SDS011;74950;56.832;41.398;2024-02-26T00:02:26;4.35;;;1.88;;
84729;SDS011;74950;56.832;41.398;2024-02-26T00:04:53;3.00;;;1.95;;
84729;SDS011;74950;56.832;41.398;2024-02-26T00:07:38;3.58;;;1.17;;
84729;SDS011;74950;56.832;41.398;2024-02-26T00:10:05;2.40;;;1.48;;
84729;SDS011;74950;56.832;41.398;2024-02-26T00:12:31;6.05;;;1.58;;
84729;SDS011;74950;56.832;41.398;2024-02-26T00:14:57;4.97;;;1.40;;
84729;SDS011;74950;56.832;41.398;2024-02-26T00:17:24;2.47;;;1.83;;
84729;SDS011;74950;56.832;41.398;2024-02-26T00:19:50;2.75;;;1.60;;
84729;SDS011;74950;56.832;41.398;2024-02-26T00:22:16;2.90;;;1.42;;
84729;SDS011;74950;56.832;41.398;2024-02-26T00:24:43;2.58;;;1.25;;
84729;SDS011;74950;56.832;41.398;2024-02-26T00:27:09;1.70;;;1.30;;
84729;SDS011;74950;56.832;41.398;2024-02-26T00:29:35;1.85;;;0.80;;
84729;SDS011;74950;56.832;41.398;2024-02-26T00:32:01;1.95;;;1.08;;
84729;SDS011;74950;56.832;41.398;2024-02-26T00:34:28;1.38;;;0.98;;
84729;SDS011;74950;56.832;41.398;2024-02-26T00:36:54;3.47;;;1.13;;
84729;SDS011;74950;56.832;41.398;2024-02-26T00:39:20;3.15;;;1.67;;
84729;SDS011;74950;56.832;41.398;2024-02-26T00:41:46;2.08;;;1.20;;
84729;SDS011;74950;56.832;41.398;2024-02-26T00:44:15;1.35;;;1.25;;
84729;SDS011;74950;56.832;41.398;2024-02-26T00:46:41;1.88;;;1.13;;
84729;SDS011;74950;56.832;41.398;2024-02-26T00:49:07;2.80;;;1.40;;
84729;SDS011;74950;56.832;41.398;2024-02-26T00:51:33;2.88;;;1.85;;
84729;SDS011;74950;56.832;41.398;2024-02-26T00:53:59;6.68;;;2.80;;
84729;SDS011;74950;56.832;41.398;2024-02-26T00:56:26;2.83;;;1.20;;
84729;SDS011;74950;56.832;41.398;2024-02-26T00:58:52;5.30;;;2.60;;
84729;SDS011;74950;56.832;41.398;2024-02-26T01:01:18;5.63;;;2.65;;
84729;SDS011;74950;56.832;41.398;2024-02-26T01:03:44;5.65;;;2.90;;
84729;SDS011;74950;56.832;41.398;2024-02-26T01:06:10;5.20;;;2.00;;
84729;SDS011;74950;56.832;41.398;2024-02-26T01:08:37;8.05;;;2.15;;
84729;SDS011;74950;56.832;41.398;2024-02-26T01:11:03;14.25;;;3.13;;
84729;SDS011;74950;56.832;41.398;2024-02-26T01:13:48;11.18;;;2.55;;
84729;SDS011;74950;56.832;41.398;2024-02-26T01:16:15;5.80;;;1.45;;
84729;SDS011;74950;56.832;41.398;2024-02-26T01:18:41;3.92;;;2.05;;
84729;SDS011;74950;56.832;41.398;2024-02-26T01:21:07;7.65;;;2.10;;
84729;SDS011;74950;56.832;41.398;2024-02-26T01:23:34;3.95;;;1.67;;
84729;SDS011;74950;56.832;41.398;2024-02-26T01:26:01;5.28;;;2.40;;
84729;SDS011;74950;56.832;41.398;2024-02-26T01:28:28;4.82;;;1.83;;
84729;SDS011;74950;56.832;41.398;2024-02-26T01:30:54;3.72;;;1.52;;
84729;SDS011;74950;56.832;41.398;2024-02-26T01:33:20;9.05;;;3.60;;
84729;SDS011;74950;56.832;41.398;2024-02-26T01:35:47;2.38;;;2.17;;
84729;SDS011;74950;56.832;41.398;2024-02-26T01:38:15;2.08;;;1.15;;
84729;SDS011;74950;56.832;41.398;2024-02-26T01:40:41;3.55;;;1.83;;
84729;SDS011;74950;56.832;41.398;2024-02-26T01:43:07;5.10;;;2.20;;
84729;SDS011;74950;56.832;41.398;2024-02-26T01:45:33;3.78;;;1.63;;
84729;SDS011;74950;56.832;41.398;2024-02-26T01:48:00;3.33;;;1.85;;
84729;SDS011;74950;56.832;41.398;2024-02-26T01:50:26;6.63;;;2.50;;
84729;SDS011;74950;56.832;41.398;2024-02-26T01:52:53;3.15;;;1.77;;
84729;SDS011;74950;56.832;41.398;2024-02-26T01:55:20;3.75;;;1.35;;
84729;SDS011;74950;56.832;41.398;2024-02-26T01:57:49;1.77;;;1.20;;
84729;SDS011;74950;56.832;41.398;2024-02-26T02:00:17;4.47;;;1.75;;
84729;SDS011;74950;56.832;41.398;2024-02-26T02:02:44;3.65;;;2.38;;
84729;SDS011;74950;56.832;41.398;2024-02-26T02:05:15;4.97;;;2.60;;
84729;SDS011;74950;56.832;41.398;2024-02-26T02:08:01;2.63;;;1.70;;
84729;SDS011;74950;56.832;41.398;2024-02-26T02:10:29;4.78;;;2.50;;
84729;SDS011;74950;56.832;41.398;2024-02-26T02:12:56;7.57;;;2.97;;
84729;SDS011;74950;56.832;41.398;2024-02-26T02:15:22;5.20;;;1.83;;
84729;SDS011;74950;56.832;41.398;2024-02-26T02:17:48;5.05;;;1.77;;
84729;SDS011;74950;56.832;41.398;2024-02-26T02:20:16;5.55;;;2.78;;
84729;SDS011;74950;56.832;41.398;2024-02-26T02:22:44;2.65;;;1.63;;
84729;SDS011;74950;56.832;41.398;2024-02-26T02:25:11;2.38;;;1.55;;
84729;SDS011;74950;56.832;41.398;2024-02-26T02:27:37;4.25;;;2.45;;
84729;SDS011;74950;56.832;41.398;2024-02-26T02:30:03;1.48;;;1.02;;
84729;SDS011;74950;56.832;41.398;2024-02-26T02:32:31;3.28;;;2.15;;
84729;SDS011;74950;56.832;41.398;2024-02-26T02:34:57;2.60;;;1.42;;
84729;SDS011;74950;56.832;41.398;2024-02-26T02:37:24;3.70;;;2.28;;
84729;SDS011;74950;56.832;41.398;2024-02-26T02:39:50;4.65;;;2.40;;
84729;SDS011;74950;56.832;41.398;2024-02-26T02:42:17;4.30;;;1.95;;
84729;SDS011;74950;56.832;41.398;2024-02-26T02:44:43;3.45;;;2.10;;
84729;SDS011;74950;56.832;41.398;2024-02-26T02:47:13;3.05;;;2.08;;
84729;SDS011;74950;56.832;41.398;2024-02-26T02:49:39;9.75;;;3.25;;
84729;SDS011;74950;56.832;41.398;2024-02-26T02:52:05;4.07;;;2.13;;
84729;SDS011;74950;56.832;41.398;2024-02-26T02:54:33;4.55;;;1.85;;
84729;SDS011;74950;56.832;41.398;2024-02-26T02:56:59;4.60;;;1.88;;
84729;SDS011;74950;56.832;41.398;2024-02-26T02:59:25;2.53;;;1.70;;
84729;SDS011;74950;56.832;41.398;2024-02-26T03:01:53;5.28;;;2.88;;
84729;SDS011;74950;56.832;41.398;2024-02-26T03:04:38;4.18;;;2.55;;
84729;SDS011;74950;56.832;41.398;2024-02-26T03:07:04;3.17;;;1.63;;
84729;SDS011;74950;56.832;41.398;2024-02-26T03:09:30;4.13;;;1.77;;
84729;SDS011;74950;56.832;41.398;2024-02-26T03:11:56;4.57;;;1.88;;
84729;SDS011;74950;56.832;41.398;2024-02-26T03:14:23;3.95;;;1.52;;
84729;SDS011;74950;56.832;41.398;2024-02-26T03:16:49;4.05;;;1.98;;
84729;SDS011;74950;56.832;41.398;2024-02-26T03:19:15;4.25;;;2.05;;
84729;SDS011;74950;56.832;41.398;2024-02-26T03:21:42;2.20;;;1.58;;
84729;SDS011;74950;56.832;41.398;2024-02-26T03:24:08;7.35;;;3.65;;
84729;SDS011;74950;56.832;41.398;2024-02-26T03:26:36;3.10;;;1.50;;
84729;SDS011;74950;56.832;41.398;2024-02-26T03:29:02;3.80;;;2.30;;
84729;SDS011;74950;56.832;41.398;2024-02-26T03:31:29;4.38;;;2.10;;
84729;SDS011;74950;56.832;41.398;2024-02-26T03:33:55;2.72;;;1.30;;
84729;SDS011;74950;56.832;41.398;2024-02-26T03:36:21;2.42;;;2.17;;
84729;SDS011;74950;56.832;41.398;2024-02-26T03:38:47;4.25;;;2.45;;
84729;SDS011;74950;56.832;41.398;2024-02-26T03:41:14;2.10;;;1.15;;
84729;SDS011;74950;56.832;41.398;2024-02-26T03:43:40;4.13;;;1.90;;
84729;SDS011;74950;56.832;41.398;2024-02-26T03:46:07;5.63;;;2.30;;
84729;SDS011;74950;56.832;41.398;2024-02-26T03:48:34;2.70;;;1.77;;
84729;SDS011;74950;56.832;41.398;2024-02-26T03:51:19;5.10;;;2.00;;
84729;SDS011;74950;56.832;41.398;2024-02-26T03:53:45;6.70;;;2.58;;
84729;SDS011;74950;56.832;41.398;2024-02-26T03:56:11;3.38;;;1.77;;
84729;SDS011;74950;56.832;41.398;2024-02-26T03:58:41;4.88;;;2.42;;
84729;SDS011;74950;56.832;41.398;2024-02-26T04:01:08;4.63;;;2.20;;
84729;SDS011;74950;56.832;41.398;2024-02-26T04:03:35;4.70;;;2.70;;
84729;SDS011;74950;56.832;41.398;2024-02-26T04:06:01;2.05;;;1.45;;
84729;SDS011;74950;56.832;41.398;2024-02-26T04:08:29;4.65;;;2.03;;
84729;SDS011;74950;56.832;41.398;2024-02-26T04:10:55;3.92;;;1.90;;
84729;SDS011;74950;56.832;41.398;2024-02-26T04:13:21;6.22;;;3.08;;
84729;SDS011;74950;56.832;41.398;2024-02-26T04:15:48;2.70;;;1.65;;
84729;SDS011;74950;56.832;41.398;2024-02-26T04:18:14;4.30;;;2.83;;
84729;SDS011;74950;56.832;41.398;2024-02-26T04:20:40;2.75;;;1.33;;
84729;SDS011;74950;56.832;41.398;2024-02-26T04:23:08;2.83;;;2.22;;
84729;SDS011;74950;56.832;41.398;2024-02-26T04:25:37;5.43;;;2.83;;
84729;SDS011;74950;56.832;41.398;2024-02-26T04:28:03;6.70;;;3.35;;
84729;SDS011;74950;56.832;41.398;2024-02-26T04:30:31;5.22;;;3.20;;
84729;SDS011;74950;56.832;41.398;2024-02-26T04:32:57;5.78;;;2.40;;
84729;SDS011;74950;56.832;41.398;2024-02-26T04:35:23;4.57;;;2.15;;
84729;SDS011;74950;56.832;41.398;2024-02-26T04:37:50;4.43;;;3.03;;
84729;SDS011;74950;56.832;41.398;2024-02-26T04:40:16;5.20;;;2.28;;
84729;SDS011;74950;56.832;41.398;2024-02-26T04:42:43;6.65;;;3.67;;
84729;SDS011;74950;56.832;41.398;2024-02-26T04:45:09;4.25;;;2.63;;
84729;SDS011;74950;56.832;41.398;2024-02-26T04:47:54;7.53;;;3.67;;
84729;SDS011;74950;56.832;41.398;2024-02-26T04:50:21;5.85;;;2.90;;
84729;SDS011;74950;56.832;41.398;2024-02-26T04:52:47;7.03;;;3.97;;
84729;SDS011;74950;56.832;41.398;2024-02-26T04:55:13;7.78;;;3.53;;
84729;SDS011;74950;56.832;41.398;2024-02-26T04:57:40;5.75;;;2.95;;
84729;SDS011;74950;56.832;41.398;2024-02-26T05:00:06;6.82;;;3.45;;
84729;SDS011;74950;56.832;41.398;2024-02-26T05:02:34;2.15;;;1.58;;
84729;SDS011;74950;56.832;41.398;2024-02-26T05:05:05;5.40;;;2.65;;
84729;SDS011;74950;56.832;41.398;2024-02-26T05:07:32;4.00;;;1.05;;
84729;SDS011;74950;56.832;41.398;2024-02-26T05:09:58;5.50;;;1.75;;
84729;SDS011;74950;56.832;41.398;2024-02-26T05:12:25;3.50;;;1.52;;
84729;SDS011;74950;56.832;41.398;2024-02-26T05:15:11;5.65;;;2.70;;
84729;SDS011;74950;56.832;41.398;2024-02-26T05:17:44;3.50;;;2.47;;
84729;SDS011;74950;56.832;41.398;2024-02-26T05:20:13;3.72;;;2.13;;
84729;SDS011;74950;56.832;41.398;2024-02-26T05:22:42;3.30;;;2.33;;
84729;SDS011;74950;56.832;41.398;2024-02-26T05:25:08;3.90;;;1.77;;
84729;SDS011;74950;56.832;41.398;2024-02-26T05:27:34;4.13;;;2.30;;
84729;SDS011;74950;56.832;41.398;2024-02-26T05:30:00;4.25;;;2.53;;
84729;SDS011;74950;56.832;41.398;2024-02-26T05:32:29;3.45;;;2.30;;
84729;SDS011;74950;56.832;41.398;2024-02-26T05:34:57;2.58;;;1.83;;
84729;SDS011;74950;56.832;41.398;2024-02-26T05:37:23;4.47;;;2.40;;
84729;SDS011;74950;56.832;41.398;2024-02-26T05:39:52;4.93;;;1.95;;
84729;SDS011;74950;56.832;41.398;2024-02-26T05:42:19;6.10;;;3.28;;
84729;SDS011;74950;56.832;41.398;2024-02-26T05:44:45;4.95;;;2.60;;
84729;SDS011;74950;56.832;41.398;2024-02-26T05:47:12;3.33;;;2.10;;
84729;SDS011;74950;56.832;41.398;2024-02-26T05:49:39;5.90;;;2.55;;
84729;SDS011;74950;56.832;41.398;2024-02-26T05:52:06;8.05;;;2.90;;
84729;SDS011;74950;56.832;41.398;2024-02-26T05:54:32;3.85;;;2.22;;
84729;SDS011;74950;56.832;41.398;2024-02-26T05:56:59;3.70;;;2.45;;
84729;SDS011;74950;56.832;41.398;2024-02-26T05:59:25;4.55;;;2.42;;
84729;SDS011;74950;56.832;41.398;2024-02-26T06:01:51;5.50;;;2.85;;
84729;SDS011;74950;56.832;41.398;2024-02-26T06:04:17;8.60;;;3.17;;
84729;SDS011;74950;56.832;41.398;2024-02-26T06:06:48;5.80;;;2.95;;
84729;SDS011;74950;56.832;41.398;2024-02-26T06:09:15;4.93;;;2.35;;
84729;SDS011;74950;56.832;41.398;2024-02-26T06:11:41;2.63;;;2.03;;
84729;SDS011;74950;56.832;41.398;2024-02-26T06:14:07;4.70;;;3.03;;
84729;SDS011;74950;56.832;41.398;2024-02-26T06:16:39;6.38;;;3.35;;
84729;SDS011;74950;56.832;41.398;2024-02-26T06:19:05;4.38;;;2.38;;
84729;SDS011;74950;56.832;41.398;2024-02-26T06:21:31;5.45;;;2.38;;
84729;SDS011;74950;56.832;41.398;2024-02-26T06:23:57;3.78;;;2.95;;
84729;SDS011;74950;56.832;41.398;2024-02-26T06:26:24;4.28;;;2.53;;
84729;SDS011;74950;56.832;41.398;2024-02-26T06:28:50;3.80;;;2.30;;
84729;SDS011;74950;56.832;41.398;2024-02-26T06:31:18;3.65;;;2.20;;
84729;SDS011;74950;56.832;41.398;2024-02-26T06:33:44;3.30;;;1.73;;
84729;SDS011;74950;56.832;41.398;2024-02-26T06:36:11;4.75;;;3.35;;
84729;SDS011;74950;56.832;41.398;2024-02-26T06:38:37;6.80;;;2.67;;
84729;SDS011;74950;56.832;41.398;2024-02-26T06:41:03;5.38;;;3.00;;
84729;SDS011;74950;56.832;41.398;2024-02-26T06:43:30;4.78;;;2.92;;
84729;SDS011;74950;56.832;41.398;2024-02-26T06:45:56;7.05;;;3.10;;
84729;SDS011;74950;56.832;41.398;2024-02-26T06:48:23;5.07;;;3.33;;
84729;SDS011;74950;56.832;41.398;2024-02-26T06:50:50;8.05;;;5.05;;
84729;SDS011;74950;56.832;41.398;2024-02-26T06:53:16;9.82;;;5.65;;
84729;SDS011;74950;56.832;41.398;2024-02-26T06:55:42;7.60;;;4.38;;
84729;SDS011;74950;56.832;41.398;2024-02-26T06:58:09;4.47;;;3.38;;
84729;SDS011;74950;56.832;41.398;2024-02-26T07:00:38;6.93;;;3.80;;
84729;SDS011;74950;56.832;41.398;2024-02-26T07:03:05;12.48;;;7.82;;
84729;SDS011;74950;56.832;41.398;2024-02-26T07:05:31;16.08;;;7.43;;
84729;SDS011;74950;56.832;41.398;2024-02-26T07:07:57;8.88;;;4.03;;
84729;SDS011;74950;56.832;41.398;2024-02-26T07:10:24;10.88;;;5.22;;
84729;SDS011;74950;56.832;41.398;2024-02-26T07:12:50;12.05;;;7.53;;
84729;SDS011;74950;56.832;41.398;2024-02-26T07:15:17;11.98;;;5.38;;
84729;SDS011;74950;56.832;41.398;2024-02-26T07:17:44;6.55;;;4.13;;
84729;SDS011;74950;56.832;41.398;2024-02-26T07:20:13;8.73;;;4.40;;
84729;SDS011;74950;56.832;41.398;2024-02-26T07:22:40;3.80;;;2.78;;
84729;SDS011;74950;56.832;41.398;2024-02-26T07:25:11;6.40;;;2.88;;
84729;SDS011;74950;56.832;41.398;2024-02-26T07:30:24;4.55;;;2.33;;
84729;SDS011;74950;56.832;41.398;2024-02-26T07:32:50;18.75;;;9.82;;
84729;SDS011;74950;56.832;41.398;2024-02-26T07:35:16;5.18;;;3.03;;
84729;SDS011;74950;56.832;41.398;2024-02-26T07:37:43;7.55;;;2.75;;
84729;SDS011;74950;56.832;41.398;2024-02-26T07:40:09;4.15;;;2.67;;
84729;SDS011;74950;56.832;41.398;2024-02-26T07:42:36;6.10;;;2.95;;
84729;SDS011;74950;56.832;41.398;2024-02-26T07:45:03;6.72;;;3.08;;
84729;SDS011;74950;56.832;41.398;2024-02-26T07:47:37;3.13;;;2.15;;
84729;SDS011;74950;56.832;41.398;2024-02-26T07:52:34;4.00;;;2.60;;
84729;SDS011;74950;56.832;41.398;2024-02-26T07:55:00;6.97;;;5.10;;
84729;SDS011;74950;56.832;41.398;2024-02-26T07:57:30;7.78;;;3.90;;
84729;SDS011;74950;56.832;41.398;2024-02-26T07:59:57;7.75;;;4.30;;
84729;SDS011;74950;56.832;41.398;2024-02-26T08:02:23;8.27;;;6.03;;
84729;SDS011;74950;56.832;41.398;2024-02-26T08:04:50;7.45;;;4.97;;
84729;SDS011;74950;56.832;41.398;2024-02-26T08:07:16;8.07;;;4.60;;
84729;SDS011;74950;56.832;41.398;2024-02-26T08:09:43;10.88;;;6.40;;
84729;SDS011;74950;56.832;41.398;2024-02-26T08:12:09;10.32;;;4.90;;
84729;SDS011;74950;56.832;41.398;2024-02-26T08:14:35;11.38;;;5.75;;
84729;SDS011;74950;56.832;41.398;2024-02-26T08:17:01;8.57;;;6.05;;
84729;SDS011;74950;56.832;41.398;2024-02-26T08:19:46;6.80;;;3.97;;
84729;SDS011;74950;56.832;41.398;2024-02-26T08:22:15;8.90;;;5.65;;
84729;SDS011;74950;56.832;41.398;2024-02-26T08:27:10;6.28;;;3.20;;
84729;SDS011;74950;56.832;41.398;2024-02-26T08:29:36;6.28;;;4.05;;
84729;SDS011;74950;56.832;41.398;2024-02-26T08:32:02;6.47;;;4.28;;
84729;SDS011;74950;56.832;41.398;2024-02-26T08:34:47;9.45;;;3.53;;
84729;SDS011;74950;56.832;41.398;2024-02-26T08:37:13;7.60;;;3.97;;
84729;SDS011;74950;56.832;41.398;2024-02-26T08:39:40;9.57;;;5.30;;
84729;SDS011;74950;56.832;41.398;2024-02-26T08:42:24;6.97;;;4.05;;
84729;SDS011;74950;56.832;41.398;2024-02-26T08:44:51;7.68;;;3.38;;
84729;SDS011;74950;56.832;41.398;2024-02-26T08:47:17;2.50;;;2.08;;
84729;SDS011;74950;56.832;41.398;2024-02-26T08:49:46;6.85;;;3.38;;
84729;SDS011;74950;56.832;41.398;2024-02-26T08:54:39;5.75;;;3.17;;
84729;SDS011;74950;56.832;41.398;2024-02-26T08:57:06;6.72;;;3.10;;
84729;SDS011;74950;56.832;41.398;2024-02-26T08:59:33;12.07;;;3.08;;
84729;SDS011;74950;56.832;41.398;2024-02-26T09:01:59;3.45;;;2.13;;
84729;SDS011;74950;56.832;41.398;2024-02-26T09:04:25;6.97;;;2.75;;
84729;SDS011;74950;56.832;41.398;2024-02-26T09:06:53;5.07;;;3.55;;
84729;SDS011;74950;56.832;41.398;2024-02-26T09:09:20;5.72;;;2.78;;
84729;SDS011;74950;56.832;41.398;2024-02-26T09:11:48;5.35;;;2.42;;
84729;SDS011;74950;56.832;41.398;2024-02-26T09:14:18;4.75;;;2.55;;
84729;SDS011;74950;56.832;41.398;2024-02-26T09:16:44;5.95;;;2.63;;
84729;SDS011;74950;56.832;41.398;2024-02-26T09:19:11;3.30;;;2.67;;
84729;SDS011;74950;56.832;41.398;2024-02-26T09:21:41;6.32;;;3.25;;
84729;SDS011;74950;56.832;41.398;2024-02-26T09:24:08;5.20;;;3.20;;
84729;SDS011;74950;56.832;41.398;2024-02-26T09:26:34;6.85;;;3.05;;
84729;SDS011;74950;56.832;41.398;2024-02-26T09:29:01;6.57;;;2.42;;
84729;SDS011;74950;56.832;41.398;2024-02-26T09:31:27;7.43;;;3.38;;
84729;SDS011;74950;56.832;41.398;2024-02-26T09:33:53;6.00;;;3.03;;
84729;SDS011;74950;56.832;41.398;2024-02-26T09:36:19;11.82;;;4.15;;
84729;SDS011;74950;56.832;41.398;2024-02-26T09:38:45;5.45;;;2.67;;
84729;SDS011;74950;56.832;41.398;2024-02-26T09:41:13;9.18;;;3.25;;
84729;SDS011;74950;56.832;41.398;2024-02-26T09:43:40;7.60;;;3.80;;
84729;SDS011;74950;56.832;41.398;2024-02-26T09:46:10;5.97;;;2.60;;
84729;SDS011;74950;56.832;41.398;2024-02-26T09:48:37;5.05;;;3.33;;
84729;SDS011;74950;56.832;41.398;2024-02-26T09:51:05;5.13;;;2.65;;
84729;SDS011;74950;56.832;41.398;2024-02-26T09:53:31;2.47;;;1.45;;
84729;SDS011;74950;56.832;41.398;2024-02-26T09:55:58;5.50;;;2.90;;
84729;SDS011;74950;56.832;41.398;2024-02-26T09:58:24;6.78;;;3.47;;
84729;SDS011;74950;56.832;41.398;2024-02-26T10:00:56;4.93;;;3.05;;
84729;SDS011;74950;56.832;41.398;2024-02-26T10:03:25;9.48;;;3.95;;
84729;SDS011;74950;56.832;41.398;2024-02-26T10:05:54;5.18;;;3.20;;
84729;SDS011;74950;56.832;41.398;2024-02-26T10:08:22;8.23;;;3.58;;
84729;SDS011;74950;56.832;41.398;2024-02-26T10:10:49;8.02;;;3.20;;
84729;SDS011;74950;56.832;41.398;2024-02-26T10:13:16;5.63;;;2.67;;
84729;SDS011;74950;56.832;41.398;2024-02-26T10:15:42;4.05;;;2.33;;
84729;SDS011;74950;56.832;41.398;2024-02-26T10:18:08;5.45;;;2.28;;
84729;SDS011;74950;56.832;41.398;2024-02-26T10:20:35;9.63;;;2.70;;
84729;SDS011;74950;56.832;41.398;2024-02-26T10:23:04;8.88;;;3.63;;
84729;SDS011;74950;56.832;41.398;2024-02-26T10:25:31;7.05;;;3.38;;
84729;SDS011;74950;56.832;41.398;2024-02-26T10:28:01;6.03;;;3.22;;
84729;SDS011;74950;56.832;41.398;2024-02-26T10:30:31;4.40;;;2.03;;
84729;SDS011;74950;56.832;41.398;2024-02-26T10:32:57;6.88;;;3.13;;
84729;SDS011;74950;56.832;41.398;2024-02-26T10:35:23;5.25;;;3.10;;
84729;SDS011;74950;56.832;41.398;2024-02-26T10:37:50;2.95;;;2.35;;
84729;SDS011;74950;56.832;41.398;2024-02-26T10:40:17;5.95;;;3.38;;
84729;SDS011;74950;56.832;41.398;2024-02-26T10:42:44;9.30;;;1.48;;
84729;SDS011;74950;56.832;41.398;2024-02-26T10:47:40;6.60;;;3.15;;
84729;SDS011;74950;56.832;41.398;2024-02-26T10:50:07;3.33;;;2.13;;
84729;SDS011;74950;56.832;41.398;2024-02-26T10:52:34;5.57;;;2.38;;
84729;SDS011;74950;56.832;41.398;2024-02-26T10:55:20;6.20;;;2.88;;
84729;SDS011;74950;56.832;41.398;2024-02-26T10:57:48;6.78;;;2.70;;
84729;SDS011;74950;56.832;41.398;2024-02-26T11:00:17;3.72;;;1.90;;
84729;SDS011;74950;56.832;41.398;2024-02-26T11:02:44;4.30;;;2.50;;
84729;SDS011;74950;56.832;41.398;2024-02-26T11:05:11;4.35;;;2.08;;
84729;SDS011;74950;56.832;41.398;2024-02-26T11:07:38;5.07;;;2.40;;
84729;SDS011;74950;56.832;41.398;2024-02-26T11:10:05;7.43;;;3.33;;
84729;SDS011;74950;56.832;41.398;2024-02-26T11:12:32;2.92;;;2.25;;
84729;SDS011;74950;56.832;41.398;2024-02-26T11:17:29;4.22;;;2.97;;
84729;SDS011;74950;56.832;41.398;2024-02-26T11:19:59;5.32;;;2.25;;
84729;SDS011;74950;56.832;41.398;2024-02-26T11:22:30;5.75;;;3.10;;
84729;SDS011;74950;56.832;41.398;2024-02-26T11:24:56;4.47;;;2.40;;
84729;SDS011;74950;56.832;41.398;2024-02-26T11:27:24;5.40;;;2.15;;
84729;SDS011;74950;56.832;41.398;2024-02-26T11:29:56;2.90;;;1.63;;
84729;SDS011;74950;56.832;41.398;2024-02-26T11:32:26;2.78;;;1.70;;
84729;SDS011;74950;56.832;41.398;2024-02-26T11:34:56;7.90;;;2.78;;
84729;SDS011;74950;56.832;41.398;2024-02-26T11:37:23;5.63;;;3.33;;
84729;SDS011;74950;56.832;41.398;2024-02-26T11:39:51;5.68;;;2.83;;
84729;SDS011;74950;56.832;41.398;2024-02-26T11:42:17;5.60;;;2.67;;
84729;SDS011;74950;56.832;41.398;2024-02-26T11:44:44;6.93;;;3.20;;
84729;SDS011;74950;56.832;41.398;2024-02-26T11:47:18;2.50;;;1.83;;
84729;SDS011;74950;56.832;41.398;2024-02-26T11:49:45;4.07;;;1.63;;
84729;SDS011;74950;56.832;41.398;2024-02-26T11:52:12;3.42;;;2.22;;
84729;SDS011;74950;56.832;41.398;2024-02-26T11:54:49;5.75;;;2.33;;
84729;SDS011;74950;56.832;41.398;2024-02-26T12:05:13;6.10;;;2.78;;
84729;SDS011;74950;56.832;41.398;2024-02-26T12:08:04;5.70;;;2.60;;
84729;SDS011;74950;56.832;41.398;2024-02-26T12:10:38;7.07;;;2.72;;
84729;SDS011;74950;56.832;41.398;2024-02-26T12:13:13;6.75;;;3.03;;
84729;SDS011;74950;56.832;41.398;2024-02-26T12:15:45;3.90;;;2.42;;
84729;SDS011;74950;56.832;41.398;2024-02-26T12:18:20;2.40;;;2.10;;
84729;SDS011;74950;56.832;41.398;2024-02-26T12:20:57;4.05;;;2.17;;
84729;SDS011;74950;56.832;41.398;2024-02-26T12:23:43;2.53;;;1.58;;
84729;SDS011;74950;56.832;41.398;2024-02-26T12:26:10;4.50;;;2.35;;
84729;SDS011;74950;56.832;41.398;2024-02-26T12:28:38;1.90;;;1.58;;
84729;SDS011;74950;56.832;41.398;2024-02-26T12:31:23;5.28;;;2.55;;
84729;SDS011;74950;56.832;41.398;2024-02-26T12:33:50;1.42;;;1.13;;
84729;SDS011;74950;56.832;41.398;2024-02-26T12:36:16;1.88;;;1.50;;
84729;SDS011;74950;56.832;41.398;2024-02-26T12:38:43;3.47;;;1.30;;
84729;SDS011;74950;56.832;41.398;2024-02-26T12:41:10;4.20;;;2.55;;
84729;SDS011;74950;56.832;41.398;2024-02-26T12:43:36;2.97;;;1.65;;
84729;SDS011;74950;56.832;41.398;2024-02-26T12:46:03;2.47;;;1.80;;
84729;SDS011;74950;56.832;41.398;2024-02-26T12:48:30;2.28;;;2.08;;
84729;SDS011;74950;56.832;41.398;2024-02-26T12:50:56;1.35;;;1.25;;
84729;SDS011;74950;56.832;41.398;2024-02-26T12:53:22;6.20;;;1.80;;
84729;SDS011;74950;56.832;41.398;2024-02-26T12:55:48;3.72;;;1.85;;
84729;SDS011;74950;56.832;41.398;2024-02-26T12:58:33;2.83;;;1.52;;
84729;SDS011;74950;56.832;41.398;2024-02-26T13:01:00;1.58;;;1.48;;
84729;SDS011;74950;56.832;41.398;2024-02-26T13:03:26;3.00;;;1.55;;
84729;SDS011;74950;56.832;41.398;2024-02-26T13:05:54;2.22;;;1.25;;
84729;SDS011;74950;56.832;41.398;2024-02-26T13:08:20;8.00;;;1.90;;
84729;SDS011;74950;56.832;41.398;2024-02-26T13:10:47;2.45;;;1.40;;
84729;SDS011;74950;56.832;41.398;2024-02-26T13:13:14;3.03;;;1.63;;
84729;SDS011;74950;56.832;41.398;2024-02-26T13:15:43;4.38;;;1.75;;
84729;SDS011;74950;56.832;41.398;2024-02-26T13:18:10;1.77;;;0.88;;
84729;SDS011;74950;56.832;41.398;2024-02-26T13:20:37;2.45;;;1.70;;
84729;SDS011;74950;56.832;41.398;2024-02-26T13:23:06;2.28;;;1.08;;
84729;SDS011;74950;56.832;41.398;2024-02-26T13:25:35;3.10;;;1.67;;
84729;SDS011;74950;56.832;41.398;2024-02-26T13:28:16;3.65;;;1.63;;
84729;SDS011;74950;56.832;41.398;2024-02-26T13:30:52;4.13;;;2.05;;
84729;SDS011;74950;56.832;41.398;2024-02-26T13:33:23;3.92;;;1.92;;
84729;SDS011;74950;56.832;41.398;2024-02-26T13:35:50;1.73;;;1.50;;
84729;SDS011;74950;56.832;41.398;2024-02-26T13:38:17;2.50;;;0.85;;
84729;SDS011;74950;56.832;41.398;2024-02-26T13:40:43;2.25;;;1.40;;
84729;SDS011;74950;56.832;41.398;2024-02-26T13:43:10;1.55;;;0.80;;
84729;SDS011;74950;56.832;41.398;2024-02-26T13:45:37;4.60;;;2.08;;
84729;SDS011;74950;56.832;41.398;2024-02-26T13:48:05;4.93;;;2.65;;
84729;SDS011;74950;56.832;41.398;2024-02-26T13:50:35;4.60;;;2.08;;
84729;SDS011;74950;56.832;41.398;2024-02-26T13:53:02;7.50;;;2.33;;
84729;SDS011;74950;56.832;41.398;2024-02-26T13:55:28;2.08;;;1.23;;
84729;SDS011;74950;56.832;41.398;2024-02-26T13:57:56;3.13;;;1.63;;
84729;SDS011;74950;56.832;41.398;2024-02-26T14:00:23;7.95;;;2.40;;
84729;SDS011;74950;56.832;41.398;2024-02-26T14:02:50;5.13;;;2.63;;
84729;SDS011;74950;56.832;41.398;2024-02-26T14:05:17;5.70;;;1.45;;
84729;SDS011;74950;56.832;41.398;2024-02-26T14:07:43;4.18;;;2.03;;
84729;SDS011;74950;56.832;41.398;2024-02-26T14:10:11;5.18;;;2.50;;
84729;SDS011;74950;56.832;41.398;2024-02-26T14:12:38;1.23;;;1.00;;
84729;SDS011;74950;56.832;41.398;2024-02-26T14:15:06;5.00;;;2.25;;
84729;SDS011;74950;56.832;41.398;2024-02-26T14:17:33;3.10;;;1.80;;
84729;SDS011;74950;56.832;41.398;2024-02-26T14:19:59;2.03;;;1.27;;
84729;SDS011;74950;56.832;41.398;2024-02-26T14:22:25;2.17;;;1.48;;
84729;SDS011;74950;56.832;41.398;2024-02-26T14:24:54;2.28;;;1.40;;
84729;SDS011;74950;56.832;41.398;2024-02-26T14:27:20;4.20;;;1.88;;
84729;SDS011;74950;56.832;41.398;2024-02-26T14:29:48;4.22;;;2.00;;
84729;SDS011;74950;56.832;41.398;2024-02-26T14:32:14;3.90;;;1.80;;
84729;SDS011;74950;56.832;41.398;2024-02-26T14:34:41;2.17;;;1.80;;
84729;SDS011;74950;56.832;41.398;2024-02-26T14:37:07;4.00;;;1.98;;
84729;SDS011;74950;56.832;41.398;2024-02-26T14:39:34;5.45;;;2.17;;
84729;SDS011;74950;56.832;41.398;2024-02-26T14:42:00;3.83;;;1.80;;
84729;SDS011;74950;56.832;41.398;2024-02-26T14:44:27;4.68;;;2.20;;
84729;SDS011;74950;56.832;41.398;2024-02-26T14:46:55;2.92;;;1.60;;
84729;SDS011;74950;56.832;41.398;2024-02-26T14:49:21;3.55;;;2.17;;
84729;SDS011;74950;56.832;41.398;2024-02-26T14:51:48;4.95;;;1.92;;
84729;SDS011;74950;56.832;41.398;2024-02-26T14:54:14;5.55;;;2.50;;
84729;SDS011;74950;56.832;41.398;2024-02-26T14:56:40;3.15;;;1.48;;
84729;SDS011;74950;56.832;41.398;2024-02-26T14:59:07;2.42;;;1.85;;